createdAt,value
2019-02-05T00:02:00.081Z,8.40
2019-02-05T00:05:22.706Z,8.50
2019-02-05T00:08:44.953Z,7.63
2019-02-05T00:12:08.424Z,7.83
2019-02-05T00:15:30.948Z,8.27
2019-02-05T00:18:53.249Z,7.87
2019-02-05T00:22:15.736Z,8.20
2019-02-05T00:25:38.521Z,8.53
2019-02-05T00:29:01.348Z,7.83
2019-02-05T00:32:23.983Z,7.97
2019-02-05T00:35:46.740Z,8.33
2019-02-05T00:39:09.773Z,8.20
2019-02-05T00:42:31.985Z,7.67
2019-02-05T00:45:54.373Z,7.40
2019-02-05T00:49:16.849Z,8.13
2019-02-05T00:52:39.329Z,8.30
2019-02-05T00:56:01.929Z,7.67
2019-02-05T00:59:24.468Z,8.37
2019-02-05T01:02:47.127Z,7.93
2019-02-05T01:06:09.986Z,7.97
2019-02-05T01:09:32.801Z,7.17
2019-02-05T01:12:55.906Z,7.87
2019-02-05T01:16:18.732Z,8.00
2019-02-05T01:19:41.244Z,8.13
2019-02-05T01:23:03.882Z,7.37
2019-02-05T01:26:31.311Z,7.00
2019-02-05T01:29:54.638Z,8.20
2019-02-05T01:33:17.721Z,8.27
2019-02-05T01:36:40.223Z,7.43
2019-02-05T01:40:02.735Z,7.73
2019-02-05T01:43:25.128Z,6.60
2019-02-05T01:46:47.737Z,7.00
2019-02-05T01:50:10.812Z,7.73
2019-02-05T01:53:33.269Z,7.67
2019-02-05T01:56:55.647Z,6.50
2019-02-05T02:00:21.341Z,7.20
2019-02-05T02:03:43.847Z,7.17
2019-02-05T02:07:07.124Z,7.27
2019-02-05T02:10:30.240Z,7.30
2019-02-05T02:13:52.629Z,6.70
2019-02-05T02:17:15.101Z,7.17
2019-02-05T02:20:37.723Z,7.10
2019-02-05T02:24:00.507Z,6.73
2019-02-05T02:27:23.181Z,7.37
2019-02-05T02:30:46.244Z,7.13
2019-02-05T02:34:09.233Z,7.30
2019-02-05T02:37:31.788Z,6.93
2019-02-05T02:40:54.496Z,6.80
2019-02-05T02:44:16.622Z,6.97
2019-02-05T02:47:39.125Z,7.13
2019-02-05T02:51:01.325Z,7.17
2019-02-05T02:54:23.972Z,7.27
2019-02-05T02:57:47.408Z,7.23
2019-02-05T03:01:10.361Z,7.17
2019-02-05T03:04:33.359Z,6.77
2019-02-05T03:07:56.053Z,6.93
2019-02-05T03:11:18.609Z,6.87
2019-02-05T03:14:41.543Z,7.30
2019-02-05T03:18:04.683Z,6.90
2019-02-05T03:21:27.821Z,6.70
2019-02-05T03:24:50.444Z,6.70
2019-02-05T03:28:13.170Z,6.87
2019-02-05T03:31:35.694Z,6.80
2019-02-05T03:34:58.584Z,6.40
2019-02-05T03:38:20.992Z,6.10
2019-02-05T03:41:43.297Z,6.67
2019-02-05T03:45:05.979Z,7.50
2019-02-05T03:48:29.162Z,6.53
2019-02-05T03:52:03.925Z,6.23
2019-02-05T03:56:09.909Z,6.13
2019-02-05T03:59:54.192Z,6.67
2019-02-05T04:04:06.142Z,7.30
2019-02-05T04:08:06.827Z,6.37
2019-02-05T04:11:44.498Z,6.70
2019-02-05T04:15:30.622Z,7.20
2019-02-05T04:19:24.601Z,7.87
2019-02-05T04:22:56.654Z,6.43
2019-02-05T04:26:36.220Z,6.17
2019-02-05T04:30:35.006Z,7.00
2019-02-05T04:34:10.570Z,6.97
2019-02-05T04:38:00.657Z,6.93
2019-02-05T04:42:09.024Z,6.57
2019-02-05T04:45:47.406Z,6.40
2019-02-05T04:49:42.899Z,7.10
2019-02-05T04:54:01.377Z,7.17
2019-02-05T04:58:02.612Z,7.00
2019-02-05T05:02:05.356Z,7.30
2019-02-05T05:05:45.640Z,7.50
2019-02-05T05:09:29.833Z,8.07
2019-02-05T05:12:52.497Z,9.03
2019-02-05T05:16:14.882Z,7.73
2019-02-05T05:19:37.324Z,9.33
2019-02-05T05:23:00.022Z,9.20
2019-02-05T05:26:22.263Z,8.70
2019-02-05T05:29:45.297Z,9.17
2019-02-05T05:33:07.981Z,11.50
2019-02-05T05:36:30.206Z,12.23
2019-02-05T05:39:52.753Z,10.20
2019-02-05T05:43:15.428Z,11.53
2019-02-05T05:46:38.099Z,11.63
2019-02-05T05:50:00.634Z,10.83
2019-02-05T05:53:23.053Z,9.13
2019-02-05T05:56:45.675Z,9.27
2019-02-05T06:00:13.653Z,8.17
2019-02-05T06:03:36.079Z,8.40
2019-02-05T06:06:58.886Z,7.67
2019-02-05T06:10:21.299Z,8.90
2019-02-05T06:13:43.823Z,9.87
2019-02-05T06:17:06.212Z,8.33
2019-02-05T06:20:28.676Z,8.70
2019-02-05T06:23:51.572Z,8.67
2019-02-05T06:27:14.486Z,8.23
2019-02-05T06:30:37.073Z,8.50
2019-02-05T06:34:00.025Z,8.17
2019-02-05T06:37:22.536Z,8.37
2019-02-05T06:40:44.983Z,7.43
2019-02-05T06:44:07.912Z,8.20
2019-02-05T06:47:30.347Z,8.00
2019-02-05T06:50:52.497Z,7.30
2019-02-05T06:54:15.149Z,7.50
2019-02-05T06:57:37.613Z,6.70
2019-02-05T07:01:00.324Z,8.50
2019-02-05T07:04:23.292Z,7.67
2019-02-05T07:07:46.035Z,7.80
2019-02-05T07:11:09.392Z,8.23
2019-02-05T07:14:32.718Z,7.97
2019-02-05T07:17:55.356Z,7.23
2019-02-05T07:21:17.841Z,9.10
2019-02-05T07:24:40.460Z,8.23
2019-02-05T07:28:03.588Z,8.80
2019-02-05T07:31:25.899Z,8.50
2019-02-05T07:34:48.750Z,9.17
2019-02-05T07:38:11.422Z,9.63
2019-02-05T07:41:33.768Z,8.30
2019-02-05T07:44:56.345Z,8.13
2019-02-05T07:48:18.954Z,7.70
2019-02-05T07:51:41.864Z,8.20
2019-02-05T07:55:05.004Z,8.50
2019-02-05T07:58:27.569Z,9.33
2019-02-05T08:01:50.336Z,8.73
2019-02-05T08:05:16.112Z,8.47
2019-02-05T08:08:38.690Z,8.77
2019-02-05T08:12:01.122Z,9.53
2019-02-05T08:15:28.442Z,11.37
2019-02-05T08:18:51.058Z,9.33
2019-02-05T08:22:13.936Z,15.17
2019-02-05T08:25:36.654Z,9.60
2019-02-05T08:28:59.186Z,10.10
2019-02-05T08:32:22.269Z,12.13
2019-02-05T08:35:45.105Z,12.53
2019-02-05T08:39:09.926Z,8.80
2019-02-05T08:42:32.677Z,8.23
2019-02-05T08:45:56.992Z,9.13
2019-02-05T08:49:19.481Z,10.03
2019-02-05T08:52:42.164Z,10.03
2019-02-05T08:56:05.212Z,10.03
2019-02-05T08:59:27.771Z,10.30
2019-02-05T09:02:50.634Z,9.47
2019-02-05T09:06:13.248Z,9.03
2019-02-05T09:09:35.610Z,8.93
2019-02-05T09:12:58.688Z,10.30
2019-02-05T09:16:21.324Z,9.27
2019-02-05T09:19:43.417Z,9.57
2019-02-05T09:23:06.645Z,9.80
2019-02-05T09:26:28.669Z,10.43
2019-02-05T09:29:51.014Z,9.87
2019-02-05T09:33:13.910Z,9.37
2019-02-05T09:36:36.319Z,9.43
2019-02-05T09:39:58.765Z,9.80
2019-02-05T09:43:21.601Z,10.20
2019-02-05T09:46:43.924Z,9.87
2019-02-05T09:50:08.356Z,9.90
2019-02-05T09:53:30.766Z,10.10
2019-02-05T09:56:53.536Z,11.17
2019-02-05T10:00:24.998Z,10.40
2019-02-05T10:03:48.132Z,10.23
2019-02-05T10:07:10.648Z,11.17
2019-02-05T10:10:33.558Z,10.97
2019-02-05T10:13:56.388Z,10.83
2019-02-05T10:17:19.164Z,11.33
2019-02-05T10:20:42.102Z,13.67
2019-02-05T10:24:05.526Z,11.40
2019-02-05T10:27:28.303Z,11.60
2019-02-05T10:30:50.954Z,12.27
2019-02-05T10:34:13.423Z,12.23
2019-02-05T10:37:36.193Z,12.40
2019-02-05T10:40:58.897Z,11.83
2019-02-05T10:44:21.325Z,21.63
2019-02-05T10:47:43.737Z,19.53
2019-02-05T10:51:06.320Z,19.73
2019-02-05T10:54:28.816Z,15.30
2019-02-05T10:57:51.531Z,12.63
2019-02-05T11:01:14.273Z,12.30
2019-02-05T11:04:36.842Z,12.57
2019-02-05T11:07:59.409Z,13.40
2019-02-05T11:11:21.487Z,13.33
2019-02-05T11:14:43.975Z,13.97
2019-02-05T11:18:09.102Z,14.13
2019-02-05T11:21:31.337Z,13.60
2019-02-05T11:24:54.066Z,13.20
2019-02-05T11:28:16.572Z,13.27
2019-02-05T11:31:39.378Z,14.07
2019-02-05T11:35:02.088Z,13.77
2019-02-05T11:38:24.533Z,14.23
2019-02-05T11:41:47.155Z,12.97
2019-02-05T11:45:11.504Z,13.40
2019-02-05T11:48:34.244Z,12.53
2019-02-05T11:51:56.710Z,12.47
2019-02-05T11:55:21.063Z,13.53
2019-02-05T11:58:43.454Z,12.73
2019-02-05T12:02:06.612Z,13.53
2019-02-05T12:05:29.449Z,13.20
2019-02-05T12:08:52.603Z,42.93
2019-02-05T12:12:15.187Z,15.97
2019-02-05T12:15:37.749Z,13.97
2019-02-05T12:19:00.428Z,14.97
2019-02-05T12:22:23.141Z,14.37
2019-02-05T12:25:45.994Z,12.97
2019-02-05T12:29:08.821Z,13.20
2019-02-05T12:32:31.318Z,14.03
2019-02-05T12:35:53.927Z,14.70
2019-02-05T12:39:18.564Z,12.90
2019-02-05T12:42:40.891Z,14.10
2019-02-05T12:46:03.379Z,13.40
2019-02-05T12:49:25.930Z,13.07
2019-02-05T12:52:49.913Z,13.37
2019-02-05T12:56:12.628Z,13.17
2019-02-05T12:59:35.114Z,13.67
2019-02-05T13:02:57.708Z,14.47
2019-02-05T13:06:20.321Z,14.33
2019-02-05T13:09:42.698Z,14.43
2019-02-05T13:13:06.899Z,13.43
2019-02-05T13:16:29.765Z,13.30
2019-02-05T13:19:52.396Z,12.63
2019-02-05T13:23:15.072Z,14.13
2019-02-05T13:26:37.590Z,14.70
2019-02-05T13:30:00.206Z,14.83
2019-02-05T13:33:22.624Z,13.13
2019-02-05T13:36:45.161Z,15.23
2019-02-05T13:40:08.993Z,14.33
2019-02-05T13:43:31.175Z,14.00
2019-02-05T13:46:53.749Z,14.10
2019-02-05T13:50:19.413Z,14.80
2019-02-05T13:53:42.064Z,14.87
2019-02-05T13:57:05.026Z,14.20
2019-02-05T14:00:39.363Z,15.53
2019-02-05T14:04:02.400Z,14.67
2019-02-05T14:07:24.855Z,14.97
2019-02-05T14:10:49.225Z,14.93
2019-02-05T14:14:11.699Z,14.60
2019-02-05T14:17:34.161Z,15.63
2019-02-05T14:20:56.332Z,15.40
2019-02-05T14:24:18.953Z,15.27
2019-02-05T14:27:41.393Z,15.40
2019-02-05T14:31:03.950Z,15.70
2019-02-05T14:34:26.574Z,16.00
2019-02-05T14:37:49.684Z,15.40
2019-02-05T14:41:12.136Z,15.80
2019-02-05T14:44:36.994Z,15.37
2019-02-05T14:47:59.378Z,16.03
2019-02-05T14:51:22.068Z,16.53
2019-02-05T14:54:44.613Z,14.83
2019-02-05T14:58:09.676Z,15.20
2019-02-05T15:01:42.467Z,16.47
2019-02-05T15:04:56.536Z,17.03
2019-02-05T15:08:19.732Z,16.83
2019-02-05T15:11:42.466Z,15.07
2019-02-05T15:15:07.453Z,15.60
2019-02-05T15:18:29.789Z,16.40
2019-02-05T15:21:52.637Z,16.70
2019-02-05T15:25:15.409Z,15.57
2019-02-05T15:28:37.833Z,16.60
2019-02-05T15:32:00.268Z,18.17
2019-02-05T15:35:22.874Z,16.90
2019-02-05T15:38:45.657Z,15.90
2019-02-05T15:42:08.124Z,16.43
2019-02-05T15:45:30.499Z,17.13
2019-02-05T15:48:52.821Z,16.90
2019-02-05T15:52:15.211Z,16.53
2019-02-05T15:55:37.769Z,17.53
2019-02-05T15:59:00.118Z,18.07
2019-02-05T16:02:23.182Z,17.07
2019-02-05T16:05:46.413Z,16.63
2019-02-05T16:09:10.182Z,16.50
2019-02-05T16:12:32.776Z,22.97
2019-02-05T16:15:55.686Z,17.50
2019-02-05T16:19:18.289Z,17.10
2019-02-05T16:22:40.933Z,16.60
2019-02-05T16:26:03.761Z,18.03
2019-02-05T16:29:26.443Z,18.07
2019-02-05T16:32:49.491Z,17.30
2019-02-05T16:36:12.242Z,16.23
2019-02-05T16:39:34.856Z,16.87
2019-02-05T16:42:57.278Z,17.20
2019-02-05T16:46:19.696Z,16.57
2019-02-05T16:49:42.123Z,17.23
2019-02-05T16:53:06.249Z,17.00
2019-02-05T16:56:28.663Z,17.30
2019-02-05T16:59:51.564Z,16.30
2019-02-05T17:03:24.689Z,16.67
2019-02-05T17:06:47.800Z,18.83
2019-02-05T17:10:12.211Z,17.00
2019-02-05T17:13:34.907Z,17.13
2019-02-05T17:16:57.480Z,17.97
2019-02-05T17:20:25.282Z,19.37
2019-02-05T17:23:47.272Z,18.40
2019-02-05T17:27:09.661Z,18.23
2019-02-05T17:30:34.125Z,17.17
2019-02-05T17:33:56.509Z,17.83
2019-02-05T17:37:19.100Z,16.73
2019-02-05T17:40:42.129Z,17.93
2019-02-05T17:44:04.727Z,15.03
2019-02-05T17:47:27.161Z,15.83
2019-02-05T17:50:49.687Z,18.17
2019-02-05T17:54:12.105Z,15.80
2019-02-05T17:57:34.759Z,16.67
2019-02-05T18:01:05.313Z,16.80
2019-02-05T18:04:28.219Z,14.97
2019-02-05T18:07:50.871Z,16.60
2019-02-05T18:11:13.286Z,15.47
2019-02-05T18:14:36.248Z,15.77
2019-02-05T18:17:59.268Z,17.07
2019-02-05T18:21:21.598Z,14.70
2019-02-05T18:24:43.676Z,15.77
2019-02-05T18:28:06.382Z,15.60
2019-02-05T18:31:29.060Z,17.97
2019-02-05T18:34:51.484Z,15.23
2019-02-05T18:38:15.384Z,14.33
2019-02-05T18:41:37.767Z,15.43
2019-02-05T18:45:00.317Z,14.30
2019-02-05T18:48:22.856Z,15.93
2019-02-05T18:51:45.508Z,14.43
2019-02-05T18:55:10.575Z,14.13
2019-02-05T18:58:33.500Z,13.43
2019-02-05T19:01:56.078Z,12.63
2019-02-05T19:05:18.649Z,14.03
2019-02-05T19:08:41.140Z,14.30
2019-02-05T19:12:05.032Z,14.43
2019-02-05T19:15:29.737Z,14.40
2019-02-05T19:18:52.370Z,14.60
2019-02-05T19:22:14.602Z,14.83
2019-02-05T19:25:58.678Z,15.30
2019-02-05T19:29:21.129Z,17.10
2019-02-05T19:32:44.064Z,18.13
2019-02-05T19:36:06.533Z,15.90
2019-02-05T19:39:28.975Z,16.60
2019-02-05T19:42:51.638Z,16.60
2019-02-05T19:46:33.078Z,17.43
2019-02-05T19:49:58.091Z,17.37
2019-02-05T19:53:21.306Z,17.17
2019-02-05T19:56:44.684Z,16.33
2019-02-05T20:00:09.506Z,18.43
2019-02-05T20:03:38.939Z,17.13
2019-02-05T20:06:56.725Z,17.53
2019-02-05T20:10:19.000Z,16.93
2019-02-05T20:13:41.573Z,17.80
2019-02-05T20:17:04.641Z,18.70
2019-02-05T20:20:27.371Z,17.53
2019-02-05T20:23:49.927Z,17.67
2019-02-05T20:27:13.221Z,18.47
2019-02-05T20:30:36.073Z,19.27
2019-02-05T20:33:58.400Z,18.77
2019-02-05T20:37:21.123Z,18.47
2019-02-05T20:40:43.669Z,17.60
2019-02-05T20:44:06.236Z,20.50
2019-02-05T20:47:28.728Z,17.90
2019-02-05T20:50:50.941Z,18.37
2019-02-05T20:54:13.480Z,18.20
2019-02-05T20:57:35.689Z,18.27
2019-02-05T21:00:58.326Z,18.93
2019-02-05T21:04:20.508Z,18.53
2019-02-05T21:07:43.458Z,18.90
2019-02-05T21:11:05.985Z,17.60
2019-02-05T21:14:28.570Z,17.63
2019-02-05T21:17:51.448Z,19.10
2019-02-05T21:21:14.089Z,18.67
2019-02-05T21:24:36.528Z,17.47
2019-02-05T21:27:59.268Z,18.93
2019-02-05T21:31:22.263Z,18.73
2019-02-05T21:34:44.944Z,17.50
2019-02-05T21:38:07.752Z,16.90
2019-02-05T21:41:30.268Z,18.70
2019-02-05T21:44:52.474Z,18.07
2019-02-05T21:48:15.245Z,18.63
2019-02-05T21:51:40.945Z,17.67
2019-02-05T21:55:02.863Z,18.50
2019-02-05T21:58:25.557Z,17.83
2019-02-05T22:01:48.114Z,18.13
2019-02-05T22:05:11.252Z,18.73
2019-02-05T22:08:33.667Z,19.93
2019-02-05T22:11:56.039Z,19.80
2019-02-05T22:15:18.956Z,18.57
2019-02-05T22:18:41.409Z,16.80
2019-02-05T22:22:04.523Z,17.40
2019-02-05T22:25:27.840Z,18.73
2019-02-05T22:28:50.272Z,17.40
2019-02-05T22:32:12.513Z,17.97
2019-02-05T22:35:58.487Z,17.30
2019-02-05T22:39:25.784Z,17.63
2019-02-05T22:42:48.352Z,17.27
2019-02-05T22:46:10.973Z,17.80
2019-02-05T22:49:34.102Z,17.07
2019-02-05T22:53:03.537Z,18.00
2019-02-05T22:56:26.225Z,17.47
2019-02-05T22:59:49.491Z,17.87
2019-02-05T23:03:13.590Z,17.63
2019-02-05T23:07:06.908Z,16.10
2019-02-05T23:10:45.650Z,17.07
2019-02-05T23:14:09.800Z,16.87
2019-02-05T23:17:32.747Z,17.83
2019-02-05T23:20:56.507Z,17.20
2019-02-05T23:24:19.701Z,17.07
2019-02-05T23:27:42.489Z,15.80
2019-02-05T23:31:05.372Z,16.17
2019-02-05T23:34:28.277Z,16.03
2019-02-05T23:37:51.493Z,16.20
2019-02-05T23:41:15.172Z,16.67
2019-02-05T23:44:44.443Z,15.93
2019-02-05T23:48:06.987Z,14.87
2019-02-05T23:51:31.786Z,15.23
2019-02-05T23:54:54.431Z,16.10
2019-02-05T23:58:17.437Z,15.97
